sensor_id;sensor_type;location;lat;lon;timestamp;pressure;altitude;pressure_sealevel;temperature;humidity
23229;BME280;11783;50.350;6.576;2023-02-13T00:01:48;98086.50;;;5.59;100.00
23229;BME280;11783;50.350;6.576;2023-02-13T00:04:14;98091.94;;;5.57;100.00
23229;BME280;11783;50.350;6.576;2023-02-13T00:06:39;98075.13;;;5.58;100.00
23229;BME280;11783;50.350;6.576;2023-02-13T00:09:04;98080.72;;;5.55;100.00
23229;BME280;11783;50.350;6.576;2023-02-13T00:11:30;98076.09;;;5.57;100.00
23229;BME280;11783;50.350;6.576;2023-02-13T00:13:57;98076.59;;;5.53;100.00
23229;BME280;11783;50.350;6.576;2023-02-13T00:16:22;98080.06;;;5.53;100.00
23229;BME280;11783;50.350;6.576;2023-02-13T00:18:47;98080.06;;;5.53;100.00
23229;BME280;11783;50.350;6.576;2023-02-13T00:21:13;98079.91;;;5.55;100.00
23229;BME280;11783;50.350;6.576;2023-02-13T00:23:39;98079.91;;;5.55;100.00
23229;BME280;11783;50.350;6.576;2023-02-13T00:26:07;98078.25;;;5.54;100.00
23229;BME280;11783;50.350;6.576;2023-02-13T00:28:32;98084.34;;;5.54;100.00
23229;BME280;11783;50.350;6.576;2023-02-13T00:31:06;98075.63;;;5.54;100.00
23229;BME280;11783;50.350;6.576;2023-02-13T00:33:32;98074.44;;;5.56;100.00
23229;BME280;11783;50.350;6.576;2023-02-13T00:36:26;98077.44;;;5.53;100.00
23229;BME280;11783;50.350;6.576;2023-02-13T00:38:50;98074.78;;;5.53;100.00
23229;BME280;11783;50.350;6.576;2023-02-13T00:41:21;98066.22;;;5.51;100.00
23229;BME280;11783;50.350;6.576;2023-02-13T00:43:47;98063.41;;;5.53;100.00
23229;BME280;11783;50.350;6.576;2023-02-13T00:46:13;98073.31;;;5.51;100.00
23229;BME280;11783;50.350;6.576;2023-02-13T00:48:39;98078.28;;;5.45;100.00
23229;BME280;11783;50.350;6.576;2023-02-13T00:51:07;98066.06;;;5.44;100.00
23229;BME280;11783;50.350;6.576;2023-02-13T00:53:34;98064.75;;;5.40;100.00
23229;BME280;11783;50.350;6.576;2023-02-13T00:56:00;98071.16;;;5.38;100.00
23229;BME280;11783;50.350;6.576;2023-02-13T00:58:28;98067.72;;;5.37;100.00
23229;BME280;11783;50.350;6.576;2023-02-13T01:00:54;98061.13;;;5.33;100.00
23229;BME280;11783;50.350;6.576;2023-02-13T01:03:20;98062.94;;;5.33;100.00
23229;BME280;11783;50.350;6.576;2023-02-13T01:05:47;98068.38;;;5.31;100.00
23229;BME280;11783;50.350;6.576;2023-02-13T01:08:14;98065.25;;;5.28;100.00
23229;BME280;11783;50.350;6.576;2023-02-13T01:10:40;98063.94;;;5.24;100.00
23229;BME280;11783;50.350;6.576;2023-02-13T01:13:07;98071.34;;;5.28;100.00
23229;BME280;11783;50.350;6.576;2023-02-13T01:15:33;98065.25;;;5.28;100.00
23229;BME280;11783;50.350;6.576;2023-02-13T01:17:58;98067.88;;;5.28;100.00
23229;BME280;11783;50.350;6.576;2023-02-13T01:20:25;98068.72;;;5.28;100.00
23229;BME280;11783;50.350;6.576;2023-02-13T01:22:51;98066.06;;;5.28;100.00
23229;BME280;11783;50.350;6.576;2023-02-13T01:25:16;98064.25;;;5.29;100.00
23229;BME280;11783;50.350;6.576;2023-02-13T01:27:42;98058.00;;;5.30;100.00
23229;BME280;11783;50.350;6.576;2023-02-13T01:30:10;98059.47;;;5.32;100.00
23229;BME280;11783;50.350;6.576;2023-02-13T01:32:38;98054.38;;;5.31;100.00
23229;BME280;11783;50.350;6.576;2023-02-13T01:35:04;98061.13;;;5.33;100.00
23229;BME280;11783;50.350;6.576;2023-02-13T01:37:30;98060.31;;;5.33;100.00
23229;BME280;11783;50.350;6.576;2023-02-13T01:39:55;98059.13;;;5.35;100.00
23229;BME280;11783;50.350;6.576;2023-02-13T01:42:24;98060.63;;;5.38;100.00
23229;BME280;11783;50.350;6.576;2023-02-13T01:44:56;98054.84;;;5.34;100.00
23229;BME280;11783;50.350;6.576;2023-02-13T01:52:32;98053.22;;;5.33;100.00
23229;BME280;11783;50.350;6.576;2023-02-13T01:54:59;98047.28;;;5.31;100.00
23229;BME280;11783;50.350;6.576;2023-02-13T01:57:27;98055.19;;;5.31;100.00
23229;BME280;11783;50.350;6.576;2023-02-13T02:00:02;98052.38;;;5.33;100.00
23229;BME280;11783;50.350;6.576;2023-02-13T02:02:33;98056.00;;;5.32;100.00
23229;BME280;11783;50.350;6.576;2023-02-13T02:05:00;98057.00;;;5.31;100.00
23229;BME280;11783;50.350;6.576;2023-02-13T02:07:28;98060.47;;;5.31;100.00
23229;BME280;11783;50.350;6.576;2023-02-13T02:09:59;98059.97;;;5.36;100.00
23229;BME280;11783;50.350;6.576;2023-02-13T02:12:41;98060.78;;;5.36;100.00
23229;BME280;11783;50.350;6.576;2023-02-13T02:15:08;98059.50;;;5.40;100.00
23229;BME280;11783;50.350;6.576;2023-02-13T02:17:33;98059.63;;;5.39;100.00
23229;BME280;11783;50.350;6.576;2023-02-13T02:28:02;98060.16;;;5.26;100.00
23229;BME280;11783;50.350;6.576;2023-02-13T02:30:54;98061.63;;;5.29;100.00
23229;BME280;11783;50.350;6.576;2023-02-13T02:33:38;98058.34;;;5.27;100.00
23229;BME280;11783;50.350;6.576;2023-02-13T02:41:43;98054.38;;;5.31;100.00
23229;BME280;11783;50.350;6.576;2023-02-13T02:44:41;98049.09;;;5.31;100.00
23229;BME280;11783;50.350;6.576;2023-02-13T02:47:23;98048.09;;;5.32;100.00
23229;BME280;11783;50.350;6.576;2023-02-13T02:50:19;98038.38;;;5.32;100.00
23229;BME280;11783;50.350;6.576;2023-02-13T02:56:19;98044.66;;;5.31;100.00
23229;BME280;11783;50.350;6.576;2023-02-13T02:58:52;98039.53;;;5.30;100.00
23229;BME280;11783;50.350;6.576;2023-02-13T03:01:39;98044.00;;;5.29;100.00
23229;BME280;11783;50.350;6.576;2023-02-13T03:04:40;98052.06;;;5.28;100.00
23229;BME280;11783;50.350;6.576;2023-02-13T03:07:26;98040.53;;;5.29;100.00
23229;BME280;11783;50.350;6.576;2023-02-13T03:10:02;98053.88;;;5.27;100.00
23229;BME280;11783;50.350;6.576;2023-02-13T03:12:54;98050.91;;;5.30;100.00
23229;BME280;11783;50.350;6.576;2023-02-13T03:15:41;98060.81;;;5.28;100.00
23229;BME280;11783;50.350;6.576;2023-02-13T03:18:28;98045.81;;;5.29;100.00
23229;BME280;11783;50.350;6.576;2023-02-13T03:21:27;98040.38;;;5.30;100.00
23229;BME280;11783;50.350;6.576;2023-02-13T03:24:52;98036.91;;;5.30;100.00
23229;BME280;11783;50.350;6.576;2023-02-13T03:27:49;98038.22;;;5.26;100.00
23229;BME280;11783;50.350;6.576;2023-02-13T03:36:42;98039.22;;;5.25;100.00
23229;BME280;11783;50.350;6.576;2023-02-13T03:42:35;98053.41;;;5.24;100.00
23229;BME280;11783;50.350;6.576;2023-02-13T03:45:07;98056.19;;;5.22;100.00
23229;BME280;11783;50.350;6.576;2023-02-13T03:48:14;98061.94;;;5.17;100.00
23229;BME280;11783;50.350;6.576;2023-02-13T03:51:18;98057.97;;;5.13;100.00
23229;BME280;11783;50.350;6.576;2023-02-13T03:53:50;98059.31;;;5.09;100.00
23229;BME280;11783;50.350;6.576;2023-02-13T03:56:17;98063.09;;;5.07;100.00
23229;BME280;11783;50.350;6.576;2023-02-13T03:59:06;98066.06;;;5.04;100.00
23229;BME280;11783;50.350;6.576;2023-02-13T04:01:47;98067.19;;;5.01;100.00
23229;BME280;11783;50.350;6.576;2023-02-13T04:04:27;98061.75;;;4.95;100.00
23229;BME280;11783;50.350;6.576;2023-02-13T04:07:07;98066.19;;;4.94;100.00
23229;BME280;11783;50.350;6.576;2023-02-13T04:09:37;98065.88;;;4.89;100.00
23229;BME280;11783;50.350;6.576;2023-02-13T04:12:14;98062.38;;;4.80;100.00
23229;BME280;11783;50.350;6.576;2023-02-13T04:14:48;98066.50;;;4.75;100.00
23229;BME280;11783;50.350;6.576;2023-02-13T04:17:26;98069.94;;;4.67;100.00
23229;BME280;11783;50.350;6.576;2023-02-13T04:19:56;98065.97;;;4.63;100.00
23229;BME280;11783;50.350;6.576;2023-02-13T04:22:22;98066.66;;;4.65;100.00
23229;BME280;11783;50.350;6.576;2023-02-13T04:24:47;98065.66;;;4.66;100.00
23229;BME280;11783;50.350;6.576;2023-02-13T04:27:16;98063.69;;;4.68;100.00
23229;BME280;11783;50.350;6.576;2023-02-13T04:29:42;98064.50;;;4.69;100.00
23229;BME280;11783;50.350;6.576;2023-02-13T04:32:11;98066.16;;;4.70;100.00
23229;BME280;11783;50.350;6.576;2023-02-13T04:34:38;98066.97;;;4.70;100.00
23229;BME280;11783;50.350;6.576;2023-02-13T04:37:03;98072.75;;;4.66;100.00
23229;BME280;11783;50.350;6.576;2023-02-13T04:39:29;98066.78;;;4.64;100.00
23229;BME280;11783;50.350;6.576;2023-02-13T04:41:54;98067.09;;;4.61;100.00
23229;BME280;11783;50.350;6.576;2023-02-13T04:44:19;98058.22;;;4.62;100.00
23229;BME280;11783;50.350;6.576;2023-02-13T04:46:45;98059.53;;;4.57;100.00
23229;BME280;11783;50.350;6.576;2023-02-13T04:49:10;98063.31;;;4.55;100.00
23229;BME280;11783;50.350;6.576;2023-02-13T04:51:36;98061.66;;;4.54;100.00
23229;BME280;11783;50.350;6.576;2023-02-13T04:54:06;98059.19;;;4.52;100.00
23229;BME280;11783;50.350;6.576;2023-02-13T04:56:31;98051.63;;;4.49;100.00
23229;BME280;11783;50.350;6.576;2023-02-13T04:58:57;98051.63;;;4.49;100.00
23229;BME280;11783;50.350;6.576;2023-02-13T05:01:22;98062.31;;;4.48;100.00
23229;BME280;11783;50.350;6.576;2023-02-13T05:03:50;98054.56;;;4.46;100.00
23229;BME280;11783;50.350;6.576;2023-02-13T05:06:18;98052.06;;;4.45;100.00
23229;BME280;11783;50.350;6.576;2023-02-13T05:08:45;98055.69;;;4.44;100.00
23229;BME280;11783;50.350;6.576;2023-02-13T05:11:11;98052.41;;;4.42;100.00
23229;BME280;11783;50.350;6.576;2023-02-13T05:13:36;98057.00;;;4.40;100.00
23229;BME280;11783;50.350;6.576;2023-02-13T05:16:02;98061.75;;;4.36;100.00
23229;BME280;11783;50.350;6.576;2023-02-13T05:18:27;98057.16;;;4.38;100.00
23229;BME280;11783;50.350;6.576;2023-02-13T05:20:55;98057.31;;;4.37;100.00
23229;BME280;11783;50.350;6.576;2023-02-13T05:23:40;98048.78;;;4.35;100.00
23229;BME280;11783;50.350;6.576;2023-02-13T05:26:05;98054.34;;;4.32;100.00
23229;BME280;11783;50.350;6.576;2023-02-13T05:28:30;98052.88;;;4.29;100.00
23229;BME280;11783;50.350;6.576;2023-02-13T05:31:14;98041.66;;;4.27;100.00
23229;BME280;11783;50.350;6.576;2023-02-13T05:33:40;98045.41;;;4.24;100.00
23229;BME280;11783;50.350;6.576;2023-02-13T05:36:05;98045.75;;;4.21;100.00
23229;BME280;11783;50.350;6.576;2023-02-13T05:38:31;98043.78;;;4.23;100.00
23229;BME280;11783;50.350;6.576;2023-02-13T05:40:59;98048.69;;;4.18;100.00
23229;BME280;11783;50.350;6.576;2023-02-13T05:43:26;98055.28;;;4.14;100.00
23229;BME280;11783;50.350;6.576;2023-02-13T05:46:03;98060.53;;;4.14;100.00
23229;BME280;11783;50.350;6.576;2023-02-13T05:48:32;98062.19;;;4.15;100.00
23229;BME280;11783;50.350;6.576;2023-02-13T05:50:58;98058.72;;;4.15;100.00
23229;BME280;11783;50.350;6.576;2023-02-13T05:53:23;98060.84;;;4.11;100.00
23229;BME280;11783;50.350;6.576;2023-02-13T05:55:48;98060.69;;;4.13;100.00
23229;BME280;11783;50.350;6.576;2023-02-13T05:58:16;98056.41;;;4.12;100.00
23229;BME280;11783;50.350;6.576;2023-02-13T06:00:46;98064.31;;;4.12;100.00
23229;BME280;11783;50.350;6.576;2023-02-13T06:03:11;98063.31;;;4.13;100.00
23229;BME280;11783;50.350;6.576;2023-02-13T06:05:37;98062.34;;;4.14;100.00
23229;BME280;11783;50.350;6.576;2023-02-13T06:08:02;98067.75;;;4.12;100.00
23229;BME280;11783;50.350;6.576;2023-02-13T06:10:28;98065.13;;;4.12;100.00
23229;BME280;11783;50.350;6.576;2023-02-13T06:12:56;98062.94;;;4.08;100.00
23229;BME280;11783;50.350;6.576;2023-02-13T06:15:24;98071.97;;;4.05;100.00
23229;BME280;11783;50.350;6.576;2023-02-13T06:17:49;98067.84;;;4.03;100.00
23229;BME280;11783;50.350;6.576;2023-02-13T06:20:14;98069.66;;;4.02;100.00
23229;BME280;11783;50.350;6.576;2023-02-13T06:22:40;98070.50;;;4.03;100.00
23229;BME280;11783;50.350;6.576;2023-02-13T06:25:05;98065.38;;;4.01;100.00
23229;BME280;11783;50.350;6.576;2023-02-13T06:27:31;98067.84;;;4.03;100.00
23229;BME280;11783;50.350;6.576;2023-02-13T06:29:56;98069.00;;;4.00;100.00
23229;BME280;11783;50.350;6.576;2023-02-13T06:32:21;98062.06;;;3.91;100.00
23229;BME280;11783;50.350;6.576;2023-02-13T06:34:47;98065.50;;;3.91;100.00
23229;BME280;11783;50.350;6.576;2023-02-13T06:37:12;98070.09;;;3.89;100.00
23229;BME280;11783;50.350;6.576;2023-02-13T06:39:40;98074.00;;;3.85;100.00
23229;BME280;11783;50.350;6.576;2023-02-13T06:42:06;98067.72;;;3.78;100.00
23229;BME280;11783;50.350;6.576;2023-02-13T06:44:32;98065.66;;;3.64;100.00
23229;BME280;11783;50.350;6.576;2023-02-13T06:47:00;98068.47;;;3.45;100.00
23229;BME280;11783;50.350;6.576;2023-02-13T06:49:25;98066.91;;;3.34;100.00
23229;BME280;11783;50.350;6.576;2023-02-13T06:51:50;98065.88;;;3.27;100.00
23229;BME280;11783;50.350;6.576;2023-02-13T06:54:18;98066.66;;;3.19;100.00
23229;BME280;11783;50.350;6.576;2023-02-13T06:56:47;98069.59;;;3.16;100.00
23229;BME280;11783;50.350;6.576;2023-02-13T06:59:12;98070.41;;;3.17;100.00
23229;BME280;11783;50.350;6.576;2023-02-13T07:01:38;98069.84;;;3.13;100.00
23229;BME280;11783;50.350;6.576;2023-02-13T07:04:06;98072.72;;;3.02;100.00
23229;BME280;11783;50.350;6.576;2023-02-13T07:06:31;98070.09;;;2.84;100.00
23229;BME280;11783;50.350;6.576;2023-02-13T07:08:56;98073.31;;;2.78;100.00
23229;BME280;11783;50.350;6.576;2023-02-13T07:11:24;98074.66;;;2.64;100.00
23229;BME280;11783;50.350;6.576;2023-02-13T07:13:52;98074.06;;;2.70;100.00
23229;BME280;11783;50.350;6.576;2023-02-13T07:16:20;98079.47;;;2.69;100.00
23229;BME280;11783;50.350;6.576;2023-02-13T07:18:45;98080.97;;;2.71;100.00
23229;BME280;11783;50.350;6.576;2023-02-13T07:21:11;98087.97;;;2.81;100.00
23229;BME280;11783;50.350;6.576;2023-02-13T07:23:36;98087.25;;;2.79;100.00
23229;BME280;11783;50.350;6.576;2023-02-13T07:26:01;98086.56;;;2.77;100.00
23229;BME280;11783;50.350;6.576;2023-02-13T07:28:27;98088.16;;;2.69;100.00
23229;BME280;11783;50.350;6.576;2023-02-13T07:30:53;98083.81;;;2.60;100.00
23229;BME280;11783;50.350;6.576;2023-02-13T07:33:19;98082.13;;;2.59;100.00
23229;BME280;11783;50.350;6.576;2023-02-13T07:35:49;98076.19;;;2.57;100.00
23229;BME280;11783;50.350;6.576;2023-02-13T07:38:16;98074.31;;;2.50;100.00
23229;BME280;11783;50.350;6.576;2023-02-13T07:40:41;98080.16;;;2.43;100.00
23229;BME280;11783;50.350;6.576;2023-02-13T07:43:07;98075.06;;;2.42;100.00
23229;BME280;11783;50.350;6.576;2023-02-13T07:45:32;98078.78;;;2.39;100.00
23229;BME280;11783;50.350;6.576;2023-02-13T07:47:58;98079.53;;;2.32;100.00
23229;BME280;11783;50.350;6.576;2023-02-13T07:50:24;98074.97;;;2.34;100.00
23229;BME280;11783;50.350;6.576;2023-02-13T07:52:57;98067.81;;;2.26;100.00
23229;BME280;11783;50.350;6.576;2023-02-13T07:55:23;98065.50;;;2.23;100.00
23229;BME280;11783;50.350;6.576;2023-02-13T07:57:49;98073.22;;;2.25;100.00
23229;BME280;11783;50.350;6.576;2023-02-13T08:00:15;98071.81;;;2.30;100.00
23229;BME280;11783;50.350;6.576;2023-02-13T08:02:41;98076.06;;;2.31;100.00
23229;BME280;11783;50.350;6.576;2023-02-13T08:05:08;98068.88;;;2.33;100.00
23229;BME280;11783;50.350;6.576;2023-02-13T08:07:34;98069.72;;;2.34;100.00
23229;BME280;11783;50.350;6.576;2023-02-13T08:10:00;98077.34;;;2.27;100.00
23229;BME280;11783;50.350;6.576;2023-02-13T08:12:45;98077.75;;;2.23;100.00
23229;BME280;11783;50.350;6.576;2023-02-13T08:15:12;98075.72;;;2.17;100.00
23229;BME280;11783;50.350;6.576;2023-02-13T08:17:38;98067.84;;;2.17;100.00
23229;BME280;11783;50.350;6.576;2023-02-13T08:20:04;98071.06;;;2.10;100.00
23229;BME280;11783;50.350;6.576;2023-02-13T08:22:35;98069.72;;;2.06;100.00
23229;BME280;11783;50.350;6.576;2023-02-13T08:25:01;98069.56;;;2.08;100.00
23229;BME280;11783;50.350;6.576;2023-02-13T08:27:29;98075.34;;;2.11;100.00
23229;BME280;11783;50.350;6.576;2023-02-13T08:29:55;98079.91;;;2.09;100.00
23229;BME280;11783;50.350;6.576;2023-02-13T08:32:26;98080.59;;;2.11;100.00
23229;BME280;11783;50.350;6.576;2023-02-13T08:34:51;98080.72;;;2.10;100.00
23229;BME280;11783;50.350;6.576;2023-02-13T08:37:17;98083.22;;;2.11;100.00
23229;BME280;11783;50.350;6.576;2023-02-13T08:39:43;98093.25;;;2.16;100.00
23229;BME280;11783;50.350;6.576;2023-02-13T08:42:08;98089.13;;;2.13;100.00
23229;BME280;11783;50.350;6.576;2023-02-13T08:44:37;98090.94;;;2.13;100.00
23229;BME280;11783;50.350;6.576;2023-02-13T08:47:05;98090.53;;;2.08;100.00
23229;BME280;11783;50.350;6.576;2023-02-13T08:49:31;98088.34;;;2.03;100.00
23229;BME280;11783;50.350;6.576;2023-02-13T08:51:56;98080.19;;;2.06;100.00
23229;BME280;11783;50.350;6.576;2023-02-13T08:54:22;98078.41;;;2.07;100.00
23229;BME280;11783;50.350;6.576;2023-02-13T08:56:47;98082.91;;;2.15;100.00
23229;BME280;11783;50.350;6.576;2023-02-13T08:59:13;98092.97;;;2.19;100.00
23229;BME280;11783;50.350;6.576;2023-02-13T09:01:38;98092.13;;;2.28;100.00
23229;BME280;11783;50.350;6.576;2023-02-13T09:04:04;98092.78;;;2.30;100.00
23229;BME280;11783;50.350;6.576;2023-02-13T09:06:29;98088.22;;;2.32;100.00
23229;BME280;11783;50.350;6.576;2023-02-13T09:08:58;98082.81;;;2.34;100.00
23229;BME280;11783;50.350;6.576;2023-02-13T09:11:23;98092.19;;;2.36;100.00
23229;BME280;11783;50.350;6.576;2023-02-13T09:13:52;98090.03;;;2.32;100.00
23229;BME280;11783;50.350;6.576;2023-02-13T09:16:18;98094.81;;;2.36;100.00
23229;BME280;11783;50.350;6.576;2023-02-13T09:18:46;98096.59;;;2.46;100.00
23229;BME280;11783;50.350;6.576;2023-02-13T09:21:12;98100.56;;;2.50;100.00
23229;BME280;11783;50.350;6.576;2023-02-13T09:23:39;98095.41;;;2.58;100.00
23229;BME280;11783;50.350;6.576;2023-02-13T09:26:10;98097.88;;;2.59;100.00
23229;BME280;11783;50.350;6.576;2023-02-13T09:28:38;98087.94;;;2.63;100.00
23229;BME280;11783;50.350;6.576;2023-02-13T09:31:11;98097.22;;;2.75;100.00
23229;BME280;11783;50.350;6.576;2023-02-13T09:33:37;98097.03;;;2.86;100.00
23229;BME280;11783;50.350;6.576;2023-02-13T09:36:07;98093.91;;;3.00;100.00
23229;BME280;11783;50.350;6.576;2023-02-13T09:38:37;98091.44;;;3.17;100.00
23229;BME280;11783;50.350;6.576;2023-02-13T09:41:06;98087.72;;;3.27;100.00
23229;BME280;11783;50.350;6.576;2023-02-13T09:46:28;98087.09;;;3.51;100.00
23229;BME280;11783;50.350;6.576;2023-02-13T09:48:59;98096.44;;;3.72;100.00
23229;BME280;11783;50.350;6.576;2023-02-13T09:51:26;98094.56;;;3.90;100.00
23229;BME280;11783;50.350;6.576;2023-02-13T09:54:00;98089.47;;;4.14;100.00
23229;BME280;11783;50.350;6.576;2023-02-13T09:56:55;98097.97;;;4.34;100.00
23229;BME280;11783;50.350;6.576;2023-02-13T10:16:23;98101.19;;;5.45;100.00
23229;BME280;11783;50.350;6.576;2023-02-13T10:19:07;98095.56;;;5.56;100.00
23229;BME280;11783;50.350;6.576;2023-02-13T10:21:40;98092.41;;;5.69;100.00
23229;BME280;11783;50.350;6.576;2023-02-13T10:24:41;98094.72;;;5.88;100.00
23229;BME280;11783;50.350;6.576;2023-02-13T10:27:17;98099.19;;;5.96;100.00
23229;BME280;11783;50.350;6.576;2023-02-13T10:29:46;98095.06;;;6.01;100.00
23229;BME280;11783;50.350;6.576;2023-02-13T10:32:47;98098.47;;;6.10;100.00
23229;BME280;11783;50.350;6.576;2023-02-13T10:35:28;98088.22;;;6.23;100.00
23229;BME280;11783;50.350;6.576;2023-02-13T10:37:55;98102.03;;;6.42;100.00
23229;BME280;11783;50.350;6.576;2023-02-13T10:40:27;98094.03;;;6.58;100.00
23229;BME280;11783;50.350;6.576;2023-02-13T10:43:16;98095.47;;;6.68;100.00
23229;BME280;11783;50.350;6.576;2023-02-13T10:48:25;98083.97;;;6.92;100.00
23229;BME280;11783;50.350;6.576;2023-02-13T10:53:38;98077.50;;;7.18;100.00
23229;BME280;11783;50.350;6.576;2023-02-13T10:56:26;98082.22;;;7.31;100.00
23229;BME280;11783;50.350;6.576;2023-02-13T11:04:17;98071.53;;;7.62;99.91
23229;BME280;11783;50.350;6.576;2023-02-13T11:07:00;98070.66;;;7.69;98.97
23229;BME280;11783;50.350;6.576;2023-02-13T11:09:27;98065.44;;;7.76;99.30
23229;BME280;11783;50.350;6.576;2023-02-13T11:11:53;98056.97;;;7.80;98.64
23229;BME280;11783;50.350;6.576;2023-02-13T11:14:23;98055.53;;;7.93;99.13
23229;BME280;11783;50.350;6.576;2023-02-13T11:17:02;98049.88;;;8.10;98.27
23229;BME280;11783;50.350;6.576;2023-02-13T11:19:38;98051.06;;;8.23;96.97
23229;BME280;11783;50.350;6.576;2023-02-13T11:22:04;98054.44;;;8.31;96.14
23229;BME280;11783;50.350;6.576;2023-02-13T11:24:32;98047.88;;;8.42;95.81
23229;BME280;11783;50.350;6.576;2023-02-13T11:27:04;98041.03;;;8.47;94.32
23229;BME280;11783;50.350;6.576;2023-02-13T11:29:35;98042.56;;;8.57;94.18
23229;BME280;11783;50.350;6.576;2023-02-13T11:34:41;98033.22;;;8.75;92.13
23229;BME280;11783;50.350;6.576;2023-02-13T11:37:14;98031.97;;;8.93;91.74
23229;BME280;11783;50.350;6.576;2023-02-13T11:39:42;98034.28;;;9.02;92.45
23229;BME280;11783;50.350;6.576;2023-02-13T11:44:54;98028.34;;;9.22;90.82
23229;BME280;11783;50.350;6.576;2023-02-13T11:49:59;98025.06;;;9.41;90.83
23229;BME280;11783;50.350;6.576;2023-02-13T11:52:33;98025.38;;;9.53;89.30
23229;BME280;11783;50.350;6.576;2023-02-13T11:55:23;98021.34;;;9.63;88.71
23229;BME280;11783;50.350;6.576;2023-02-13T11:57:57;98027.13;;;9.67;88.15
23229;BME280;11783;50.350;6.576;2023-02-13T12:00:33;98022.44;;;9.69;88.41
23229;BME280;11783;50.350;6.576;2023-02-13T12:03:12;98020.41;;;9.71;88.58
23229;BME280;11783;50.350;6.576;2023-02-13T12:06:13;98015.91;;;9.71;87.30
23229;BME280;11783;50.350;6.576;2023-02-13T12:08:42;98016.75;;;9.79;86.46
23229;BME280;11783;50.350;6.576;2023-02-13T12:13:58;98013.81;;;9.95;85.96
23229;BME280;11783;50.350;6.576;2023-02-13T12:16:38;98006.47;;;9.97;85.22
23229;BME280;11783;50.350;6.576;2023-02-13T12:19:14;98015.97;;;10.13;83.36
23229;BME280;11783;50.350;6.576;2023-02-13T12:24:45;98006.34;;;10.12;85.40
23229;BME280;11783;50.350;6.576;2023-02-13T12:27:26;98004.72;;;10.17;84.03
23229;BME280;11783;50.350;6.576;2023-02-13T12:30:13;98004.63;;;10.32;83.02
23229;BME280;11783;50.350;6.576;2023-02-13T12:33:02;97999.31;;;10.32;82.17
23229;BME280;11783;50.350;6.576;2023-02-13T12:53:21;97983.53;;;10.91;77.52
23229;BME280;11783;50.350;6.576;2023-02-13T12:59:11;97978.88;;;11.00;77.04
23229;BME280;11783;50.350;6.576;2023-02-13T13:01:50;97971.72;;;11.01;76.74
23229;BME280;11783;50.350;6.576;2023-02-13T13:04:51;97974.38;;;11.07;77.04
23229;BME280;11783;50.350;6.576;2023-02-13T13:18:49;97961.84;;;11.87;77.39
23229;BME280;11783;50.350;6.576;2023-02-13T13:28:57;97955.69;;;13.21;75.02
23229;BME280;11783;50.350;6.576;2023-02-13T13:31:25;97954.75;;;13.58;72.70
23229;BME280;11783;50.350;6.576;2023-02-13T13:33:54;97952.47;;;13.80;68.05
23229;BME280;11783;50.350;6.576;2023-02-13T13:39:26;97951.94;;;14.08;70.15
23229;BME280;11783;50.350;6.576;2023-02-13T13:45:14;97943.03;;;14.51;65.28
23229;BME280;11783;50.350;6.576;2023-02-13T13:47:56;97942.09;;;14.87;69.38
23229;BME280;11783;50.350;6.576;2023-02-13T13:50:29;97934.16;;;15.22;67.81
23229;BME280;11783;50.350;6.576;2023-02-13T13:53:08;97944.53;;;15.42;65.50
23229;BME280;11783;50.350;6.576;2023-02-13T14:03:40;97927.72;;;16.17;62.84
23229;BME280;11783;50.350;6.576;2023-02-13T14:06:10;97925.56;;;16.42;61.54
23229;BME280;11783;50.350;6.576;2023-02-13T14:11:05;97937.31;;;16.93;59.28
23229;BME280;11783;50.350;6.576;2023-02-13T14:13:48;97922.25;;;17.25;56.19
23229;BME280;11783;50.350;6.576;2023-02-13T14:19:03;97915.22;;;17.58;52.47
23229;BME280;11783;50.350;6.576;2023-02-13T14:21:29;97928.38;;;17.71;52.60
23229;BME280;11783;50.350;6.576;2023-02-13T14:23:56;97923.03;;;17.93;52.76
23229;BME280;11783;50.350;6.576;2023-02-13T14:26:33;97922.31;;;18.03;53.14
23229;BME280;11783;50.350;6.576;2023-02-13T14:29:16;97915.66;;;18.05;51.31
23229;BME280;11783;50.350;6.576;2023-02-13T14:32:15;97922.03;;;18.21;52.33
23229;BME280;11783;50.350;6.576;2023-02-13T14:34:52;97917.47;;;18.43;47.11
23229;BME280;11783;50.350;6.576;2023-02-13T14:37:30;97918.69;;;18.58;50.38
23229;BME280;11783;50.350;6.576;2023-02-13T14:40:43;97914.84;;;18.75;49.11
23229;BME280;11783;50.350;6.576;2023-02-13T14:43:29;97918.56;;;18.69;45.23
23229;BME280;11783;50.350;6.576;2023-02-13T14:48:39;97911.56;;;18.68;46.50
23229;BME280;11783;50.350;6.576;2023-02-13T14:51:06;97911.69;;;18.35;45.08
23229;BME280;11783;50.350;6.576;2023-02-13T14:53:52;97909.63;;;17.98;47.40
23229;BME280;11783;50.350;6.576;2023-02-13T14:56:20;97910.59;;;17.70;44.44
23229;BME280;11783;50.350;6.576;2023-02-13T14:59:12;97901.47;;;17.54;49.70
23229;BME280;11783;50.350;6.576;2023-02-13T15:05:07;97907.66;;;17.05;49.80
23229;BME280;11783;50.350;6.576;2023-02-13T15:07:41;97904.81;;;16.94;48.18
23229;BME280;11783;50.350;6.576;2023-02-13T15:10:38;97909.22;;;17.01;49.83
23229;BME280;11783;50.350;6.576;2023-02-13T15:13:16;97906.13;;;17.09;50.37
23229;BME280;11783;50.350;6.576;2023-02-13T15:15:44;97906.72;;;17.11;50.17
23229;BME280;11783;50.350;6.576;2023-02-13T15:18:17;97904.25;;;17.26;49.22
23229;BME280;11783;50.350;6.576;2023-02-13T15:20:43;97901.06;;;17.46;47.95
23229;BME280;11783;50.350;6.576;2023-02-13T15:23:20;97907.66;;;17.55;47.93
23229;BME280;11783;50.350;6.576;2023-02-13T15:25:46;97905.69;;;17.67;49.24
23229;BME280;11783;50.350;6.576;2023-02-13T15:28:22;97898.22;;;17.69;48.50
23229;BME280;11783;50.350;6.576;2023-02-13T15:30:56;97901.72;;;17.70;47.49
23229;BME280;11783;50.350;6.576;2023-02-13T15:33:24;97904.16;;;17.54;48.40
23229;BME280;11783;50.350;6.576;2023-02-13T15:36:17;97904.50;;;17.41;47.40
23229;BME280;11783;50.350;6.576;2023-02-13T15:38:43;97908.31;;;17.29;48.00
23229;BME280;11783;50.350;6.576;2023-02-13T15:43:42;97909.34;;;16.77;45.88
23229;BME280;11783;50.350;6.576;2023-02-13T15:46:20;97899.84;;;16.58;50.54
23229;BME280;11783;50.350;6.576;2023-02-13T15:48:49;97907.16;;;16.34;49.27